Terminal Aerodrome Forecast
Issued by NWS Cleveland, OH

Home | Current Version | Previous Version | Graphics & Text | Print | Product List | Glossary On
Versions: 1 2 3 4 5 6 7 8 9 10 11 12 13 14 15 16 17 18 19 20 21
000
FTUS41 KCLE 132300
TAFERI
TAF
KERI 132330Z 1400/1424 21015G22KT P6SM SCT050 BKN200 WS010/21040KT
     FM141000 20018G30KT P6SM SCT050 BKN150 WS014/21045KT
     FM141700 21020G30KT P6SM -SHRA BKN035 OVC060
     FM141900 20020G32KT 6SM -SHRA VCTS BKN040CB OVC100=

USA.gov is the U.S. government's official web portal to all federal, state and local government web resources and services.